sensor_id;sensor_type;location;lat;lon;timestamp;P1;durP1;ratioP1;P2;durP2;ratioP2
19434;SDS011;9853;50.848;4.108;2023-07-24T00:00:43;9.68;;;4.00;;
19434;SDS011;9853;50.848;4.108;2023-07-24T00:02:44;10.77;;;4.35;;
19434;SDS011;9853;50.848;4.108;2023-07-24T00:04:45;6.70;;;4.18;;
19434;SDS011;9853;50.848;4.108;2023-07-24T00:06:46;16.65;;;4.30;;
19434;SDS011;9853;50.848;4.108;2023-07-24T00:08:46;9.20;;;4.40;;
19434;SDS011;9853;50.848;4.108;2023-07-24T00:10:47;13.85;;;4.68;;
19434;SDS011;9853;50.848;4.108;2023-07-24T00:12:48;10.40;;;4.47;;
19434;SDS011;9853;50.848;4.108;2023-07-24T00:14:49;9.30;;;4.05;;
19434;SDS011;9853;50.848;4.108;2023-07-24T00:16:50;19.50;;;4.95;;
19434;SDS011;9853;50.848;4.108;2023-07-24T00:18:51;13.57;;;4.50;;
19434;SDS011;9853;50.848;4.108;2023-07-24T00:20:51;10.95;;;4.68;;
19434;SDS011;9853;50.848;4.108;2023-07-24T00:22:52;11.13;;;4.65;;
19434;SDS011;9853;50.848;4.108;2023-07-24T00:24:53;8.25;;;4.50;;
19434;SDS011;9853;50.848;4.108;2023-07-24T00:26:54;7.72;;;4.35;;
19434;SDS011;9853;50.848;4.108;2023-07-24T00:28:54;9.27;;;5.00;;
19434;SDS011;9853;50.848;4.108;2023-07-24T00:30:55;6.00;;;4.45;;
19434;SDS011;9853;50.848;4.108;2023-07-24T00:32:56;9.05;;;4.25;;
19434;SDS011;9853;50.848;4.108;2023-07-24T00:34:57;9.15;;;4.68;;
19434;SDS011;9853;50.848;4.108;2023-07-24T00:36:57;10.57;;;4.25;;
19434;SDS011;9853;50.848;4.108;2023-07-24T00:38:58;12.43;;;4.03;;
19434;SDS011;9853;50.848;4.108;2023-07-24T00:40:59;8.40;;;3.95;;
19434;SDS011;9853;50.848;4.108;2023-07-24T00:43:00;7.93;;;3.95;;
19434;SDS011;9853;50.848;4.108;2023-07-24T00:45:02;11.18;;;3.83;;
19434;SDS011;9853;50.848;4.108;2023-07-24T00:47:03;8.18;;;3.90;;
19434;SDS011;9853;50.848;4.108;2023-07-24T00:49:04;9.65;;;3.83;;
19434;SDS011;9853;50.848;4.108;2023-07-24T00:51:06;12.18;;;3.70;;
19434;SDS011;9853;50.848;4.108;2023-07-24T00:53:08;11.10;;;3.88;;
19434;SDS011;9853;50.848;4.108;2023-07-24T00:55:11;15.95;;;4.28;;
19434;SDS011;9853;50.848;4.108;2023-07-24T00:57:15;4.63;;;3.17;;
19434;SDS011;9853;50.848;4.108;2023-07-24T00:59:16;7.30;;;4.22;;
19434;SDS011;9853;50.848;4.108;2023-07-24T01:01:17;7.97;;;4.00;;
19434;SDS011;9853;50.848;4.108;2023-07-24T01:03:18;12.18;;;4.55;;
19434;SDS011;9853;50.848;4.108;2023-07-24T01:05:19;11.15;;;4.10;;
19434;SDS011;9853;50.848;4.108;2023-07-24T01:07:21;10.98;;;4.22;;
19434;SDS011;9853;50.848;4.108;2023-07-24T01:09:22;8.85;;;4.10;;
19434;SDS011;9853;50.848;4.108;2023-07-24T01:11:30;8.32;;;3.58;;
19434;SDS011;9853;50.848;4.108;2023-07-24T01:13:38;5.10;;;2.60;;
19434;SDS011;9853;50.848;4.108;2023-07-24T01:15:50;5.03;;;2.35;;
19434;SDS011;9853;50.848;4.108;2023-07-24T01:18:10;3.05;;;1.75;;
19434;SDS011;9853;50.848;4.108;2023-07-24T01:20:13;4.32;;;1.95;;
19434;SDS011;9853;50.848;4.108;2023-07-24T01:24:24;4.40;;;1.50;;
19434;SDS011;9853;50.848;4.108;2023-07-24T01:26:33;1.63;;;1.40;;
19434;SDS011;9853;50.848;4.108;2023-07-24T01:28:34;1.80;;;1.20;;
19434;SDS011;9853;50.848;4.108;2023-07-24T01:30:35;4.25;;;1.38;;
19434;SDS011;9853;50.848;4.108;2023-07-24T01:32:36;3.10;;;1.20;;
19434;SDS011;9853;50.848;4.108;2023-07-24T01:34:38;2.15;;;1.20;;
19434;SDS011;9853;50.848;4.108;2023-07-24T01:36:46;1.80;;;1.10;;
19434;SDS011;9853;50.848;4.108;2023-07-24T01:38:48;3.67;;;1.00;;
19434;SDS011;9853;50.848;4.108;2023-07-24T01:40:53;1.13;;;0.90;;
19434;SDS011;9853;50.848;4.108;2023-07-24T01:42:54;1.55;;;0.85;;
19434;SDS011;9853;50.848;4.108;2023-07-24T01:44:55;1.42;;;0.90;;
19434;SDS011;9853;50.848;4.108;2023-07-24T01:47:04;1.00;;;0.88;;
19434;SDS011;9853;50.848;4.108;2023-07-24T01:49:08;1.58;;;1.00;;
19434;SDS011;9853;50.848;4.108;2023-07-24T01:51:09;2.70;;;1.23;;
19434;SDS011;9853;50.848;4.108;2023-07-24T01:53:10;2.15;;;1.10;;
19434;SDS011;9853;50.848;4.108;2023-07-24T01:55:16;3.05;;;1.13;;
19434;SDS011;9853;50.848;4.108;2023-07-24T01:57:17;1.17;;;0.90;;
19434;SDS011;9853;50.848;4.108;2023-07-24T01:59:18;2.75;;;1.23;;
19434;SDS011;9853;50.848;4.108;2023-07-24T02:01:19;5.00;;;1.10;;
19434;SDS011;9853;50.848;4.108;2023-07-24T02:03:25;1.83;;;1.10;;
19434;SDS011;9853;50.848;4.108;2023-07-24T02:05:33;3.10;;;1.17;;
19434;SDS011;9853;50.848;4.108;2023-07-24T02:07:42;1.45;;;1.00;;
19434;SDS011;9853;50.848;4.108;2023-07-24T02:09:46;5.50;;;1.30;;
19434;SDS011;9853;50.848;4.108;2023-07-24T02:11:53;3.95;;;1.23;;
19434;SDS011;9853;50.848;4.108;2023-07-24T02:14:07;2.78;;;1.27;;
19434;SDS011;9853;50.848;4.108;2023-07-24T02:16:24;1.48;;;1.10;;
19434;SDS011;9853;50.848;4.108;2023-07-24T02:19:20;1.60;;;1.20;;
19434;SDS011;9853;50.848;4.108;2023-07-24T02:21:48;2.22;;;1.20;;
19434;SDS011;9853;50.848;4.108;2023-07-24T02:32:33;2.67;;;1.20;;
19434;SDS011;9853;50.848;4.108;2023-07-24T02:34:34;5.25;;;1.08;;
19434;SDS011;9853;50.848;4.108;2023-07-24T02:36:34;3.15;;;1.38;;
19434;SDS011;9853;50.848;4.108;2023-07-24T02:38:36;1.73;;;1.20;;
19434;SDS011;9853;50.848;4.108;2023-07-24T02:40:37;4.18;;;1.23;;
19434;SDS011;9853;50.848;4.108;2023-07-24T02:42:40;3.83;;;1.30;;
19434;SDS011;9853;50.848;4.108;2023-07-24T02:44:41;6.45;;;1.30;;
19434;SDS011;9853;50.848;4.108;2023-07-24T02:46:41;2.25;;;1.25;;
19434;SDS011;9853;50.848;4.108;2023-07-24T02:48:42;3.17;;;1.33;;
19434;SDS011;9853;50.848;4.108;2023-07-24T02:50:43;2.15;;;1.50;;
19434;SDS011;9853;50.848;4.108;2023-07-24T02:52:43;2.85;;;1.30;;
19434;SDS011;9853;50.848;4.108;2023-07-24T02:54:44;2.10;;;1.48;;
19434;SDS011;9853;50.848;4.108;2023-07-24T02:56:45;4.13;;;1.30;;
19434;SDS011;9853;50.848;4.108;2023-07-24T02:58:45;3.38;;;1.25;;
19434;SDS011;9853;50.848;4.108;2023-07-24T03:00:46;4.20;;;1.40;;
19434;SDS011;9853;50.848;4.108;2023-07-24T03:02:47;1.88;;;1.17;;
19434;SDS011;9853;50.848;4.108;2023-07-24T03:04:47;2.40;;;1.40;;
19434;SDS011;9853;50.848;4.108;2023-07-24T03:06:48;2.15;;;1.48;;
19434;SDS011;9853;50.848;4.108;2023-07-24T03:08:49;2.22;;;1.38;;
19434;SDS011;9853;50.848;4.108;2023-07-24T03:10:50;1.40;;;1.23;;
19434;SDS011;9853;50.848;4.108;2023-07-24T03:12:50;2.22;;;1.42;;
19434;SDS011;9853;50.848;4.108;2023-07-24T03:14:51;1.88;;;1.48;;
19434;SDS011;9853;50.848;4.108;2023-07-24T03:16:52;2.22;;;1.30;;
19434;SDS011;9853;50.848;4.108;2023-07-24T03:18:52;2.38;;;1.50;;
19434;SDS011;9853;50.848;4.108;2023-07-24T03:20:53;5.22;;;1.50;;
19434;SDS011;9853;50.848;4.108;2023-07-24T03:22:54;2.50;;;1.50;;
19434;SDS011;9853;50.848;4.108;2023-07-24T03:24:55;3.97;;;1.63;;
19434;SDS011;9853;50.848;4.108;2023-07-24T03:26:55;4.72;;;1.40;;
19434;SDS011;9853;50.848;4.108;2023-07-24T03:28:56;6.20;;;1.85;;
19434;SDS011;9853;50.848;4.108;2023-07-24T03:30:57;3.30;;;1.52;;
19434;SDS011;9853;50.848;4.108;2023-07-24T03:32:57;3.92;;;1.40;;
19434;SDS011;9853;50.848;4.108;2023-07-24T03:34:58;4.40;;;1.40;;
19434;SDS011;9853;50.848;4.108;2023-07-24T03:36:59;2.03;;;1.48;;
19434;SDS011;9853;50.848;4.108;2023-07-24T03:38:59;3.75;;;1.50;;
19434;SDS011;9853;50.848;4.108;2023-07-24T03:41:00;2.45;;;1.52;;
19434;SDS011;9853;50.848;4.108;2023-07-24T03:43:03;2.03;;;1.42;;
19434;SDS011;9853;50.848;4.108;2023-07-24T03:45:05;3.28;;;1.40;;
19434;SDS011;9853;50.848;4.108;2023-07-24T03:47:07;3.72;;;1.30;;
19434;SDS011;9853;50.848;4.108;2023-07-24T03:49:07;3.05;;;1.38;;
19434;SDS011;9853;50.848;4.108;2023-07-24T03:51:08;3.85;;;1.38;;
19434;SDS011;9853;50.848;4.108;2023-07-24T03:53:09;2.55;;;1.20;;
19434;SDS011;9853;50.848;4.108;2023-07-24T03:55:09;1.80;;;1.50;;
19434;SDS011;9853;50.848;4.108;2023-07-24T03:57:10;4.75;;;1.20;;
19434;SDS011;9853;50.848;4.108;2023-07-24T03:59:11;2.42;;;1.40;;
19434;SDS011;9853;50.848;4.108;2023-07-24T04:01:12;1.75;;;1.35;;
19434;SDS011;9853;50.848;4.108;2023-07-24T04:03:12;3.55;;;1.13;;
19434;SDS011;9853;50.848;4.108;2023-07-24T04:05:13;2.42;;;1.45;;
19434;SDS011;9853;50.848;4.108;2023-07-24T04:07:14;1.80;;;1.10;;
19434;SDS011;9853;50.848;4.108;2023-07-24T04:09:15;4.18;;;1.20;;
19434;SDS011;9853;50.848;4.108;2023-07-24T04:11:15;1.55;;;1.10;;
19434;SDS011;9853;50.848;4.108;2023-07-24T04:13:16;3.03;;;1.10;;
19434;SDS011;9853;50.848;4.108;2023-07-24T04:15:17;4.18;;;1.20;;
19434;SDS011;9853;50.848;4.108;2023-07-24T04:17:17;2.10;;;1.25;;
19434;SDS011;9853;50.848;4.108;2023-07-24T04:19:18;2.17;;;1.13;;
19434;SDS011;9853;50.848;4.108;2023-07-24T04:21:19;1.55;;;1.30;;
19434;SDS011;9853;50.848;4.108;2023-07-24T04:23:19;2.95;;;1.13;;
19434;SDS011;9853;50.848;4.108;2023-07-24T04:25:20;2.80;;;1.30;;
19434;SDS011;9853;50.848;4.108;2023-07-24T04:27:21;1.55;;;1.35;;
19434;SDS011;9853;50.848;4.108;2023-07-24T04:29:21;3.10;;;1.40;;
19434;SDS011;9853;50.848;4.108;2023-07-24T04:31:24;1.70;;;1.48;;
19434;SDS011;9853;50.848;4.108;2023-07-24T04:33:25;1.92;;;1.20;;
19434;SDS011;9853;50.848;4.108;2023-07-24T04:35:27;1.67;;;1.38;;
19434;SDS011;9853;50.848;4.108;2023-07-24T04:37:28;2.95;;;1.30;;
19434;SDS011;9853;50.848;4.108;2023-07-24T04:39:28;8.27;;;1.20;;
19434;SDS011;9853;50.848;4.108;2023-07-24T04:41:29;4.15;;;1.02;;
19434;SDS011;9853;50.848;4.108;2023-07-24T04:43:29;4.53;;;1.23;;
19434;SDS011;9853;50.848;4.108;2023-07-24T04:45:30;1.70;;;1.20;;
19434;SDS011;9853;50.848;4.108;2023-07-24T04:47:31;1.55;;;1.00;;
19434;SDS011;9853;50.848;4.108;2023-07-24T04:49:31;1.15;;;1.05;;
19434;SDS011;9853;50.848;4.108;2023-07-24T04:51:33;1.80;;;1.20;;
19434;SDS011;9853;50.848;4.108;2023-07-24T04:53:33;2.58;;;1.52;;
19434;SDS011;9853;50.848;4.108;2023-07-24T04:55:34;1.98;;;1.50;;
19434;SDS011;9853;50.848;4.108;2023-07-24T04:57:35;2.60;;;1.70;;
19434;SDS011;9853;50.848;4.108;2023-07-24T04:59:35;2.08;;;1.60;;
19434;SDS011;9853;50.848;4.108;2023-07-24T05:01:36;3.15;;;1.63;;
19434;SDS011;9853;50.848;4.108;2023-07-24T05:03:37;1.52;;;1.25;;
19434;SDS011;9853;50.848;4.108;2023-07-24T05:05:38;2.85;;;1.63;;
19434;SDS011;9853;50.848;4.108;2023-07-24T05:07:39;2.50;;;1.45;;
19434;SDS011;9853;50.848;4.108;2023-07-24T05:09:39;3.92;;;1.70;;
19434;SDS011;9853;50.848;4.108;2023-07-24T05:11:41;2.03;;;1.40;;
19434;SDS011;9853;50.848;4.108;2023-07-24T05:13:44;1.67;;;1.40;;
19434;SDS011;9853;50.848;4.108;2023-07-24T05:15:45;5.85;;;1.40;;
19434;SDS011;9853;50.848;4.108;2023-07-24T05:17:46;4.15;;;1.70;;
19434;SDS011;9853;50.848;4.108;2023-07-24T05:19:46;2.15;;;1.50;;
19434;SDS011;9853;50.848;4.108;2023-07-24T05:21:47;2.65;;;1.58;;
19434;SDS011;9853;50.848;4.108;2023-07-24T05:23:48;6.85;;;1.60;;
19434;SDS011;9853;50.848;4.108;2023-07-24T05:25:55;4.22;;;1.52;;
19434;SDS011;9853;50.848;4.108;2023-07-24T05:27:57;7.32;;;1.88;;
19434;SDS011;9853;50.848;4.108;2023-07-24T05:29:58;5.65;;;1.77;;
19434;SDS011;9853;50.848;4.108;2023-07-24T05:31:59;5.75;;;1.60;;
19434;SDS011;9853;50.848;4.108;2023-07-24T05:33:59;2.83;;;1.80;;
19434;SDS011;9853;50.848;4.108;2023-07-24T05:36:01;5.75;;;1.88;;
19434;SDS011;9853;50.848;4.108;2023-07-24T05:38:03;2.67;;;1.58;;
19434;SDS011;9853;50.848;4.108;2023-07-24T05:40:04;7.30;;;1.80;;
19434;SDS011;9853;50.848;4.108;2023-07-24T05:42:05;3.53;;;1.67;;
19434;SDS011;9853;50.848;4.108;2023-07-24T05:44:06;6.30;;;1.80;;
19434;SDS011;9853;50.848;4.108;2023-07-24T05:46:07;4.22;;;1.83;;
19434;SDS011;9853;50.848;4.108;2023-07-24T05:48:07;4.32;;;1.67;;
19434;SDS011;9853;50.848;4.108;2023-07-24T05:50:08;6.68;;;2.25;;
19434;SDS011;9853;50.848;4.108;2023-07-24T05:52:09;3.30;;;2.17;;
19434;SDS011;9853;50.848;4.108;2023-07-24T05:54:10;4.00;;;2.20;;
19434;SDS011;9853;50.848;4.108;2023-07-24T05:56:10;7.43;;;2.13;;
19434;SDS011;9853;50.848;4.108;2023-07-24T05:58:11;4.13;;;1.73;;
19434;SDS011;9853;50.848;4.108;2023-07-24T06:00:12;6.13;;;2.58;;
19434;SDS011;9853;50.848;4.108;2023-07-24T06:02:12;9.88;;;2.33;;
19434;SDS011;9853;50.848;4.108;2023-07-24T06:04:13;2.83;;;2.08;;
19434;SDS011;9853;50.848;4.108;2023-07-24T06:06:14;6.45;;;2.30;;
19434;SDS011;9853;50.848;4.108;2023-07-24T06:08:14;4.00;;;2.25;;
19434;SDS011;9853;50.848;4.108;2023-07-24T06:10:15;7.00;;;2.40;;
19434;SDS011;9853;50.848;4.108;2023-07-24T06:12:16;4.90;;;2.38;;
19434;SDS011;9853;50.848;4.108;2023-07-24T06:14:16;4.72;;;2.58;;
19434;SDS011;9853;50.848;4.108;2023-07-24T06:16:17;4.82;;;2.50;;
19434;SDS011;9853;50.848;4.108;2023-07-24T06:18:18;6.45;;;2.92;;
19434;SDS011;9853;50.848;4.108;2023-07-24T06:20:19;6.97;;;2.55;;
19434;SDS011;9853;50.848;4.108;2023-07-24T06:22:19;6.90;;;2.28;;
19434;SDS011;9853;50.848;4.108;2023-07-24T06:24:20;3.67;;;2.22;;
19434;SDS011;9853;50.848;4.108;2023-07-24T06:26:21;4.22;;;2.50;;
19434;SDS011;9853;50.848;4.108;2023-07-24T06:28:22;4.82;;;2.60;;
19434;SDS011;9853;50.848;4.108;2023-07-24T06:30:23;5.13;;;2.60;;
19434;SDS011;9853;50.848;4.108;2023-07-24T06:32:23;6.43;;;2.65;;
19434;SDS011;9853;50.848;4.108;2023-07-24T06:34:24;4.70;;;2.40;;
19434;SDS011;9853;50.848;4.108;2023-07-24T06:36:25;5.45;;;2.10;;
19434;SDS011;9853;50.848;4.108;2023-07-24T06:38:26;6.55;;;2.50;;
19434;SDS011;9853;50.848;4.108;2023-07-24T06:40:27;3.83;;;1.98;;
19434;SDS011;9853;50.848;4.108;2023-07-24T06:42:27;6.93;;;2.00;;
19434;SDS011;9853;50.848;4.108;2023-07-24T06:44:28;3.65;;;1.92;;
19434;SDS011;9853;50.848;4.108;2023-07-24T06:46:29;4.25;;;1.90;;
19434;SDS011;9853;50.848;4.108;2023-07-24T06:48:29;7.65;;;2.10;;
19434;SDS011;9853;50.848;4.108;2023-07-24T06:50:30;4.35;;;2.20;;
19434;SDS011;9853;50.848;4.108;2023-07-24T06:52:31;4.75;;;1.90;;
19434;SDS011;9853;50.848;4.108;2023-07-24T06:54:33;4.30;;;2.00;;
19434;SDS011;9853;50.848;4.108;2023-07-24T06:56:33;3.47;;;1.73;;
19434;SDS011;9853;50.848;4.108;2023-07-24T06:58:36;5.55;;;2.42;;
19434;SDS011;9853;50.848;4.108;2023-07-24T07:00:37;3.88;;;2.10;;
19434;SDS011;9853;50.848;4.108;2023-07-24T07:02:38;4.35;;;2.10;;
19434;SDS011;9853;50.848;4.108;2023-07-24T07:04:38;3.67;;;1.98;;
19434;SDS011;9853;50.848;4.108;2023-07-24T07:06:39;5.03;;;2.10;;
19434;SDS011;9853;50.848;4.108;2023-07-24T07:08:40;4.95;;;2.60;;
19434;SDS011;9853;50.848;4.108;2023-07-24T07:10:40;3.97;;;1.90;;
19434;SDS011;9853;50.848;4.108;2023-07-24T07:12:41;6.30;;;2.40;;
19434;SDS011;9853;50.848;4.108;2023-07-24T07:14:42;7.40;;;2.00;;
19434;SDS011;9853;50.848;4.108;2023-07-24T07:16:42;7.45;;;2.45;;
19434;SDS011;9853;50.848;4.108;2023-07-24T07:18:44;5.00;;;2.20;;
19434;SDS011;9853;50.848;4.108;2023-07-24T07:20:45;6.35;;;2.10;;
19434;SDS011;9853;50.848;4.108;2023-07-24T07:22:47;7.03;;;2.40;;
19434;SDS011;9853;50.848;4.108;2023-07-24T07:24:47;6.63;;;2.22;;
19434;SDS011;9853;50.848;4.108;2023-07-24T07:26:48;6.22;;;2.17;;
19434;SDS011;9853;50.848;4.108;2023-07-24T07:28:49;6.18;;;2.63;;
19434;SDS011;9853;50.848;4.108;2023-07-24T07:30:50;5.70;;;2.05;;
19434;SDS011;9853;50.848;4.108;2023-07-24T07:32:51;4.22;;;2.15;;
19434;SDS011;9853;50.848;4.108;2023-07-24T07:34:52;4.50;;;2.38;;
19434;SDS011;9853;50.848;4.108;2023-07-24T07:36:52;3.15;;;2.00;;
19434;SDS011;9853;50.848;4.108;2023-07-24T07:38:53;4.68;;;2.40;;
19434;SDS011;9853;50.848;4.108;2023-07-24T07:40:54;5.03;;;2.40;;
19434;SDS011;9853;50.848;4.108;2023-07-24T07:42:54;3.45;;;2.22;;
19434;SDS011;9853;50.848;4.108;2023-07-24T07:44:56;9.20;;;2.53;;
19434;SDS011;9853;50.848;4.108;2023-07-24T07:46:57;4.75;;;2.03;;
19434;SDS011;9853;50.848;4.108;2023-07-24T07:48:57;3.92;;;2.22;;
19434;SDS011;9853;50.848;4.108;2023-07-24T07:50:58;5.32;;;2.45;;
19434;SDS011;9853;50.848;4.108;2023-07-24T07:52:59;3.90;;;2.42;;
19434;SDS011;9853;50.848;4.108;2023-07-24T07:54:59;3.53;;;2.10;;
19434;SDS011;9853;50.848;4.108;2023-07-24T07:57:00;3.25;;;2.05;;
19434;SDS011;9853;50.848;4.108;2023-07-24T07:59:01;5.60;;;2.08;;
19434;SDS011;9853;50.848;4.108;2023-07-24T08:01:05;2.53;;;1.85;;
19434;SDS011;9853;50.848;4.108;2023-07-24T08:03:06;5.47;;;2.03;;
19434;SDS011;9853;50.848;4.108;2023-07-24T08:05:07;6.18;;;2.13;;
19434;SDS011;9853;50.848;4.108;2023-07-24T08:07:08;3.00;;;1.95;;
19434;SDS011;9853;50.848;4.108;2023-07-24T08:09:09;2.78;;;2.00;;
19434;SDS011;9853;50.848;4.108;2023-07-24T08:11:10;3.45;;;2.10;;
19434;SDS011;9853;50.848;4.108;2023-07-24T08:13:11;5.18;;;2.45;;
19434;SDS011;9853;50.848;4.108;2023-07-24T08:15:11;3.28;;;1.83;;
19434;SDS011;9853;50.848;4.108;2023-07-24T08:17:12;3.80;;;2.35;;
19434;SDS011;9853;50.848;4.108;2023-07-24T08:19:13;4.57;;;2.40;;
19434;SDS011;9853;50.848;4.108;2023-07-24T08:21:14;4.18;;;2.20;;
19434;SDS011;9853;50.848;4.108;2023-07-24T08:23:15;4.35;;;2.20;;
19434;SDS011;9853;50.848;4.108;2023-07-24T08:25:15;3.75;;;2.20;;
19434;SDS011;9853;50.848;4.108;2023-07-24T08:27:16;6.18;;;2.53;;
19434;SDS011;9853;50.848;4.108;2023-07-24T08:29:17;5.07;;;2.42;;
19434;SDS011;9853;50.848;4.108;2023-07-24T08:31:18;4.13;;;2.38;;
19434;SDS011;9853;50.848;4.108;2023-07-24T08:33:18;5.28;;;2.78;;
19434;SDS011;9853;50.848;4.108;2023-07-24T08:35:19;4.53;;;2.00;;
19434;SDS011;9853;50.848;4.108;2023-07-24T08:37:20;3.63;;;2.28;;
19434;SDS011;9853;50.848;4.108;2023-07-24T08:39:20;3.97;;;1.83;;
19434;SDS011;9853;50.848;4.108;2023-07-24T08:41:21;4.03;;;1.92;;
19434;SDS011;9853;50.848;4.108;2023-07-24T08:43:22;5.53;;;2.30;;
19434;SDS011;9853;50.848;4.108;2023-07-24T08:45:22;5.75;;;2.40;;
19434;SDS011;9853;50.848;4.108;2023-07-24T08:47:24;4.90;;;1.90;;
19434;SDS011;9853;50.848;4.108;2023-07-24T08:49:25;4.28;;;2.20;;
19434;SDS011;9853;50.848;4.108;2023-07-24T08:51:28;6.18;;;1.90;;
19434;SDS011;9853;50.848;4.108;2023-07-24T08:53:32;6.68;;;1.98;;
19434;SDS011;9853;50.848;4.108;2023-07-24T08:55:36;3.58;;;2.10;;
19434;SDS011;9853;50.848;4.108;2023-07-24T08:57:39;5.25;;;2.10;;
19434;SDS011;9853;50.848;4.108;2023-07-24T08:59:39;2.45;;;1.90;;
19434;SDS011;9853;50.848;4.108;2023-07-24T09:01:40;4.05;;;2.10;;
19434;SDS011;9853;50.848;4.108;2023-07-24T09:03:41;2.50;;;1.80;;
19434;SDS011;9853;50.848;4.108;2023-07-24T09:05:41;3.40;;;1.80;;
19434;SDS011;9853;50.848;4.108;2023-07-24T09:07:42;7.70;;;2.00;;
19434;SDS011;9853;50.848;4.108;2023-07-24T09:09:44;5.60;;;2.30;;
19434;SDS011;9853;50.848;4.108;2023-07-24T09:11:49;2.60;;;1.60;;
19434;SDS011;9853;50.848;4.108;2023-07-24T09:13:51;2.63;;;1.70;;
19434;SDS011;9853;50.848;4.108;2023-07-24T09:15:52;3.53;;;2.13;;
19434;SDS011;9853;50.848;4.108;2023-07-24T09:17:53;4.32;;;2.20;;
19434;SDS011;9853;50.848;4.108;2023-07-24T09:19:57;2.85;;;1.80;;
19434;SDS011;9853;50.848;4.108;2023-07-24T09:22:11;2.85;;;1.92;;
19434;SDS011;9853;50.848;4.108;2023-07-24T09:24:16;5.07;;;1.73;;
19434;SDS011;9853;50.848;4.108;2023-07-24T09:26:17;2.47;;;1.90;;
19434;SDS011;9853;50.848;4.108;2023-07-24T09:28:18;5.60;;;2.00;;
19434;SDS011;9853;50.848;4.108;2023-07-24T09:30:19;3.95;;;1.77;;
19434;SDS011;9853;50.848;4.108;2023-07-24T09:32:24;2.90;;;1.75;;
19434;SDS011;9853;50.848;4.108;2023-07-24T09:34:26;5.70;;;1.85;;
19434;SDS011;9853;50.848;4.108;2023-07-24T09:36:36;3.35;;;1.70;;
19434;SDS011;9853;50.848;4.108;2023-07-24T09:38:38;5.15;;;1.90;;
19434;SDS011;9853;50.848;4.108;2023-07-24T09:40:41;4.47;;;1.98;;
19434;SDS011;9853;50.848;4.108;2023-07-24T09:42:47;3.70;;;1.90;;
19434;SDS011;9853;50.848;4.108;2023-07-24T09:44:47;4.22;;;2.00;;
19434;SDS011;9853;50.848;4.108;2023-07-24T09:46:48;4.78;;;1.98;;
19434;SDS011;9853;50.848;4.108;2023-07-24T09:48:49;3.15;;;1.95;;
19434;SDS011;9853;50.848;4.108;2023-07-24T09:50:57;3.25;;;2.08;;
19434;SDS011;9853;50.848;4.108;2023-07-24T09:52:59;5.93;;;2.03;;
19434;SDS011;9853;50.848;4.108;2023-07-24T09:57:03;4.00;;;1.77;;
19434;SDS011;9853;50.848;4.108;2023-07-24T09:59:04;2.35;;;1.60;;
19434;SDS011;9853;50.848;4.108;2023-07-24T10:01:07;4.43;;;1.92;;
19434;SDS011;9853;50.848;4.108;2023-07-24T10:03:09;4.10;;;1.92;;
19434;SDS011;9853;50.848;4.108;2023-07-24T10:05:10;4.22;;;1.85;;
19434;SDS011;9853;50.848;4.108;2023-07-24T10:07:12;3.17;;;2.10;;
19434;SDS011;9853;50.848;4.108;2023-07-24T10:09:14;3.20;;;1.70;;
19434;SDS011;9853;50.848;4.108;2023-07-24T10:11:15;2.72;;;1.88;;
19434;SDS011;9853;50.848;4.108;2023-07-24T10:13:17;2.72;;;1.80;;
19434;SDS011;9853;50.848;4.108;2023-07-24T10:15:18;4.05;;;2.10;;
19434;SDS011;9853;50.848;4.108;2023-07-24T10:17:38;2.67;;;1.80;;
19434;SDS011;9853;50.848;4.108;2023-07-24T10:19:40;2.70;;;2.00;;
19434;SDS011;9853;50.848;4.108;2023-07-24T10:21:46;2.78;;;2.20;;
19434;SDS011;9853;50.848;4.108;2023-07-24T10:23:47;3.97;;;2.20;;
19434;SDS011;9853;50.848;4.108;2023-07-24T10:25:49;4.10;;;2.38;;
19434;SDS011;9853;50.848;4.108;2023-07-24T10:27:52;4.85;;;2.38;;
19434;SDS011;9853;50.848;4.108;2023-07-24T10:29:59;3.05;;;2.30;;
19434;SDS011;9853;50.848;4.108;2023-07-24T10:32:02;5.28;;;2.50;;
19434;SDS011;9853;50.848;4.108;2023-07-24T10:34:04;6.07;;;2.63;;
19434;SDS011;9853;50.848;4.108;2023-07-24T10:36:06;3.42;;;2.17;;
19434;SDS011;9853;50.848;4.108;2023-07-24T10:38:10;4.78;;;2.10;;
19434;SDS011;9853;50.848;4.108;2023-07-24T10:40:19;6.20;;;2.40;;
19434;SDS011;9853;50.848;4.108;2023-07-24T10:42:22;3.40;;;2.33;;
19434;SDS011;9853;50.848;4.108;2023-07-24T10:44:32;4.60;;;2.25;;
19434;SDS011;9853;50.848;4.108;2023-07-24T10:46:36;4.30;;;2.50;;
19434;SDS011;9853;50.848;4.108;2023-07-24T10:48:44;4.88;;;3.03;;
19434;SDS011;9853;50.848;4.108;2023-07-24T10:50:46;5.18;;;2.83;;
19434;SDS011;9853;50.848;4.108;2023-07-24T10:52:48;5.03;;;3.00;;
19434;SDS011;9853;50.848;4.108;2023-07-24T10:54:50;5.93;;;3.15;;
19434;SDS011;9853;50.848;4.108;2023-07-24T10:56:57;4.97;;;2.58;;
19434;SDS011;9853;50.848;4.108;2023-07-24T10:59:03;6.95;;;2.97;;
19434;SDS011;9853;50.848;4.108;2023-07-24T11:01:05;4.65;;;2.50;;
19434;SDS011;9853;50.848;4.108;2023-07-24T11:03:09;6.45;;;2.97;;
19434;SDS011;9853;50.848;4.108;2023-07-24T11:05:12;8.02;;;2.83;;
19434;SDS011;9853;50.848;4.108;2023-07-24T11:07:14;4.78;;;2.78;;
19434;SDS011;9853;50.848;4.108;2023-07-24T11:09:15;5.32;;;2.63;;
19434;SDS011;9853;50.848;4.108;2023-07-24T11:11:16;5.65;;;2.65;;
19434;SDS011;9853;50.848;4.108;2023-07-24T11:13:17;5.47;;;2.95;;
19434;SDS011;9853;50.848;4.108;2023-07-24T11:15:25;5.35;;;3.03;;
19434;SDS011;9853;50.848;4.108;2023-07-24T11:17:36;3.58;;;2.67;;
19434;SDS011;9853;50.848;4.108;2023-07-24T11:19:37;5.93;;;2.90;;
19434;SDS011;9853;50.848;4.108;2023-07-24T11:21:38;4.20;;;2.90;;
19434;SDS011;9853;50.848;4.108;2023-07-24T11:23:47;8.40;;;3.00;;
19434;SDS011;9853;50.848;4.108;2023-07-24T11:25:52;4.05;;;2.80;;
19434;SDS011;9853;50.848;4.108;2023-07-24T11:27:53;5.68;;;2.67;;
19434;SDS011;9853;50.848;4.108;2023-07-24T11:29:54;6.32;;;2.60;;
19434;SDS011;9853;50.848;4.108;2023-07-24T11:31:55;4.90;;;2.50;;
19434;SDS011;9853;50.848;4.108;2023-07-24T11:33:56;4.50;;;2.50;;
19434;SDS011;9853;50.848;4.108;2023-07-24T11:35:58;3.22;;;2.30;;
19434;SDS011;9853;50.848;4.108;2023-07-24T11:37:59;4.00;;;2.70;;
19434;SDS011;9853;50.848;4.108;2023-07-24T11:40:00;4.88;;;2.63;;
19434;SDS011;9853;50.848;4.108;2023-07-24T11:42:04;5.20;;;2.80;;
19434;SDS011;9853;50.848;4.108;2023-07-24T11:44:05;8.05;;;2.90;;
19434;SDS011;9853;50.848;4.108;2023-07-24T11:46:06;3.78;;;2.65;;
19434;SDS011;9853;50.848;4.108;2023-07-24T11:48:10;4.55;;;2.40;;
19434;SDS011;9853;50.848;4.108;2023-07-24T11:50:11;6.25;;;3.10;;
19434;SDS011;9853;50.848;4.108;2023-07-24T11:52:13;3.38;;;2.30;;
19434;SDS011;9853;50.848;4.108;2023-07-24T11:54:14;4.60;;;2.50;;
19434;SDS011;9853;50.848;4.108;2023-07-24T11:56:15;6.35;;;2.53;;
19434;SDS011;9853;50.848;4.108;2023-07-24T11:58:17;5.20;;;2.90;;
19434;SDS011;9853;50.848;4.108;2023-07-24T12:00:19;4.05;;;2.80;;
19434;SDS011;9853;50.848;4.108;2023-07-24T12:02:21;6.10;;;2.70;;
19434;SDS011;9853;50.848;4.108;2023-07-24T12:04:21;5.72;;;2.90;;
19434;SDS011;9853;50.848;4.108;2023-07-24T12:06:22;5.65;;;2.38;;
19434;SDS011;9853;50.848;4.108;2023-07-24T12:08:31;7.18;;;2.33;;
19434;SDS011;9853;50.848;4.108;2023-07-24T12:10:35;5.07;;;2.30;;
19434;SDS011;9853;50.848;4.108;2023-07-24T12:12:38;9.77;;;2.60;;
19434;SDS011;9853;50.848;4.108;2023-07-24T12:14:39;4.22;;;2.47;;
19434;SDS011;9853;50.848;4.108;2023-07-24T12:16:40;5.60;;;2.05;;
19434;SDS011;9853;50.848;4.108;2023-07-24T12:18:41;5.13;;;2.40;;
19434;SDS011;9853;50.848;4.108;2023-07-24T12:20:41;6.10;;;2.47;;
19434;SDS011;9853;50.848;4.108;2023-07-24T12:22:42;4.03;;;2.22;;
19434;SDS011;9853;50.848;4.108;2023-07-24T12:24:43;5.88;;;2.20;;
19434;SDS011;9853;50.848;4.108;2023-07-24T12:26:43;5.38;;;2.25;;
19434;SDS011;9853;50.848;4.108;2023-07-24T12:28:44;5.07;;;2.17;;
19434;SDS011;9853;50.848;4.108;2023-07-24T12:30:45;7.20;;;2.03;;
19434;SDS011;9853;50.848;4.108;2023-07-24T12:32:45;5.32;;;2.60;;
19434;SDS011;9853;50.848;4.108;2023-07-24T12:34:46;5.65;;;2.28;;
19434;SDS011;9853;50.848;4.108;2023-07-24T12:36:47;6.28;;;2.45;;
19434;SDS011;9853;50.848;4.108;2023-07-24T12:38:48;6.05;;;2.20;;